Check out our new BloomSky Weather System.

Active alerts

Galveston, TX
  Details for Galveston, TX Wind Advisory


Thunder radar  blitzortung!


Rain radar more information rain snow radar


Visit our other weather sites:

Template documentation
and downloads

And another site



Nearby METAR Reports

   
KIAH - Houston, TX
Updated: Nov 18 2017 11:53 pm
Few Clouds  
Few Clouds  
   Wind: North 20.7 mph<br />Gust to 20.7 mph
Wind: North 20.7 mph
Gust to 20.7 mph
Temperature: 57.2°F
Dew Point: 41°F
Humidity: 55%
Barometer: 30.21 inHg
Clouds: Few Clouds
Visibility: 10 mi
Cloud details: Few Clouds 25000 ft
KIAH 190553Z 36018G26KT 10SM FEW250 14/05 A3021 RMK AO2 PK WND 01030/0530 SLP228 T01390050 10222 20139 402890139 52034
KCLL - College Station, TX
Updated: Nov 18 2017 11:53 pm
Clear  
Clear  
   Wind: North 13.8 mph
Wind: North 13.8 mph
Temperature: 53.6°F
Dew Point: 37.4°F
Humidity: 54%
Barometer: 30.27 inHg
Clouds: Clear
Visibility: 10 mi
Cloud details: Clear ft
KCLL 190553Z AUTO 36012KT 10SM CLR 12/03 A3027 RMK AO2 SLP246 T01170033 10194 20117 402890117 51028
KBPT - Beaumont, TX
Updated: Nov 18 2017 11:53 pm
Clear  
Clear  
   Wind: North 21.9 mph<br />Gust to 21.9 mph
Wind: North 21.9 mph
Gust to 21.9 mph
Temperature: 57.2°F
Dew Point: 42.8°F
Humidity: 59%
Barometer: 30.14 inHg
Clouds: Clear
Visibility: 10 mi
Cloud details: Clear ft
KBPT 190553Z AUTO 36019G25KT 10SM CLR 14/06 A3014 RMK AO2 PK WND 36029/0523 SLP206 T01390061 10244 20139 402890139 51036

Script developed by  Saratoga-weather.org Adapted for the template by  Weerstation Leuven

You find our weather info also at:

UK Metoffice

WeatherCloud

Weather Underground

Mid-South Weather Network

AWEKAS

Citizen Weather Observer Program (CWOP)

HAMweather, WeatherForYou, PWS Weather

Equipment we use:

Weather-station
Davis Vantage Vue

Weather-program
Meteohub

Weather-server
Debian 7.9 x86 (Guest)

Provider
DreamHost

Davis Vantage Vue

Meteohub

Debian 7.9 x86 (Guest)

DreamHost